Time;durP1;ratioP1;P1;durP2;ratioP2;P2;SDS_P1;SDS_P2;PMS_P1;PMS_P2;Temp;Humidity;BMP_temperature;BMP_pressure;BME280_temperature;BME280_humidity;BME280_pressure;Samples;Min_cycle;Max_cycle;Signal;HPM_P1;HPM_P2
2021/05/03 17:15:06;;;;;;;2.15;1.12;;;;;;;35.44;24.47;160515.78;1633469;85;21886;-78
2021/05/03 17:25:13;;;;;;;1.85;1.32;;;;;;;35.25;24.68;160464.97;1535099;91;21209;-80
2021/05/03 17:28:35;;;;;;;1.47;1.10;;;;;;;35.25;24.61;160464.97;1555333;89;21301;-79
2021/05/03 17:31:14;;;;;;;10.55;1.82;;;;;;;35.17;24.65;160443.59;1576997;89;21336;-79
2021/05/03 17:33:47;;;;;;;1.77;1.62;;;;;;;35.16;24.66;160440.92;1537274;91;21242;-80
2021/05/03 17:36:23;;;;;;;1.70;1.00;;;;;;;35.12;24.65;160430.20;1545388;91;21420;-78
2021/05/03 17:38:57;;;;;;;1.50;1.10;;;;;;;35.10;24.62;160423.53;1564343;91;21359;-77
2021/05/03 17:41:41;;;;;;;2.27;1.15;;;;;;;35.07;24.60;160415.50;1560032;91;21235;-78
2021/05/03 17:44:16;;;;;;;6.15;1.20;;;;;;;35.03;24.62;160406.09;1577557;90;21289;-78
2021/05/03 17:46:54;;;;;;;2.75;1.02;;;;;;;34.96;24.62;160386.03;1544432;90;21208;-78
2021/05/03 17:49:26;;;;;;;2.30;1.10;;;;;;;34.95;24.60;160384.72;1617047;85;21385;-80
2021/05/03 17:52:02;;;;;;;2.08;1.17;;;;;;;34.92;24.64;160376.69;1650575;85;21221;-77
2021/05/03 17:54:35;;;;;;;1.52;1.20;;;;;;;34.96;24.59;160386.03;1649219;85;21214;-76
2021/05/03 17:57:09;;;;;;;1.52;1.40;;;;;;;34.92;24.58;160376.69;1647179;85;21230;-76
2021/05/03 17:59:47;;;;;;;3.83;1.40;;;;;;;34.89;24.59;160367.34;1623161;87;21339;-77
2021/05/03 18:02:19;;;;;;;1.80;1.12;;;;;;;34.85;24.59;160357.94;1651923;85;21305;-78
2021/05/03 18:04:53;;;;;;;2.87;1.10;;;;;;;34.77;24.64;160336.56;1648210;86;21222;-78
2021/05/03 18:07:31;;;;;;;1.37;1.22;;;;;;;34.77;24.63;160336.56;1662694;84;21355;-79
2021/05/03 18:10:27;;;;;;;3.45;1.10;;;;;;;34.73;24.62;160325.86;1633321;86;21268;-79
2021/05/03 18:13:06;;;;;;;1.42;1.32;;;;;;;34.65;24.69;160304.48;1641762;86;21309;-78
2021/05/03 18:15:39;;;;;;;2.12;1.50;;;;;;;34.65;24.67;160304.48;1652400;85;21813;-78
2021/05/03 18:18:12;;;;;;;1.80;1.10;;;;;;;34.64;24.68;160300.50;1663651;85;21302;-81
2021/05/03 18:20:47;;;;;;;2.15;1.30;;;;;;;34.60;24.66;160289.78;1696844;84;21373;-81
2021/05/03 18:23:19;;;;;;;1.85;1.30;;;;;;;34.59;24.65;160287.11;1651425;85;21392;-77
2021/05/03 18:25:54;;;;;;;2.98;1.40;;;;;;;34.57;24.68;160281.70;1663270;85;21217;-77
2021/05/03 18:28:27;;;;;;;1.42;1.32;;;;;;;34.51;24.70;160265.69;1666526;85;21329;-77
2021/05/03 18:31:02;;;;;;;2.20;1.85;;;;;;;34.49;24.72;160260.33;1667651;85;21842;-78
2021/05/03 18:33:34;;;;;;;2.08;1.75;;;;;;;34.50;24.71;160264.31;1665520;85;21308;-77
2021/05/03 18:36:14;;;;;;;1.92;1.72;;;;;;;34.46;24.70;160252.30;1663344;84;21226;-76
2021/05/03 18:38:44;;;;;;;2.42;1.50;;;;;;;34.45;24.71;160250.98;1659111;85;21314;-79
2021/05/03 18:41:21;;;;;;;3.90;1.80;;;;;;;34.44;24.71;160246.95;1672244;85;21202;-78
2021/05/03 18:43:57;;;;;;;3.62;1.85;;;;;;;34.43;24.72;160245.63;1663370;84;21211;-77
2021/05/03 18:46:33;;;;;;;4.03;1.90;;;;;;;34.37;24.76;160229.63;1670218;84;21332;-77
2021/05/03 18:49:23;;;;;;;3.05;1.70;;;;;;;34.34;24.77;160220.22;1661931;85;21396;-79
2021/05/03 18:52:11;;;;;;;2.98;1.90;;;;;;;34.33;24.80;160217.55;1654281;85;21267;-77
2021/05/03 18:54:52;;;;;;;3.15;1.60;;;;;;;34.32;24.84;160214.88;1660486;85;21395;-79
2021/05/03 18:57:27;;;;;;;2.72;2.05;;;;;;;34.32;24.81;160216.23;1660386;84;22019;-76
2021/05/03 19:00:09;;;;;;;2.92;1.90;;;;;;;34.29;24.83;160208.20;1667880;85;21377;-77
2021/05/03 19:03:52;;;;;;;3.37;1.60;;;;;;;34.93;24.47;160378.00;1662532;84;21783;-79
2021/05/03 19:06:38;;;;;;;2.87;1.70;;;;;;;35.14;24.29;160436.88;1649896;85;21434;-78
2021/05/03 19:09:14;;;;;;;1.60;1.47;;;;;;;35.14;24.26;160435.56;1681473;83;21315;-79
2021/05/03 19:12:28;;;;;;;2.35;1.40;;;;;;;35.10;24.27;160424.84;1595456;85;21229;-77
2021/05/03 19:15:27;;;;;;;2.98;2.27;;;;;;;35.09;24.25;160420.86;1653796;85;21781;-79
2021/05/03 19:18:56;;;;;;;1.62;1.30;;;;;;;35.22;24.16;160456.94;1613105;85;21968;-76
2021/05/03 19:21:55;;;;;;;3.40;1.55;;;;;;;35.13;24.18;160432.88;1658105;85;21257;-77
2021/05/03 19:24:53;;;;;;;2.02;1.40;;;;;;;34.28;24.68;160205.53;1652408;85;21195;-76
2021/05/03 19:27:53;;;;;;;2.40;1.22;;;;;;;34.13;24.84;160162.81;1661096;85;21401;-77
2021/05/03 19:31:00;;;;;;;3.40;1.30;;;;;;;34.10;24.88;160156.08;1628737;86;21247;-77
2021/05/03 19:33:24;;;;;;;2.65;1.50;;;;;;;34.11;24.91;160158.75;1642193;85;21393;-76
2021/05/03 19:35:57;;;;;;;2.27;1.40;;;;;;;34.11;24.91;160158.75;1646732;85;21386;-75
2021/05/03 19:38:30;;;;;;;2.00;1.40;;;;;;;33.94;25.04;160113.31;1647212;86;21419;-76
2021/05/03 19:41:05;;;;;;;2.10;1.62;;;;;;;33.87;25.08;160093.27;1648143;85;21398;-77
2021/05/03 19:43:40;;;;;;;2.22;1.30;;;;;;;33.82;25.10;160081.25;1646198;86;21342;-78
2021/05/03 19:46:13;;;;;;;2.37;1.35;;;;;;;33.89;25.08;160098.62;1659054;85;21357;-78
2021/05/03 19:48:51;;;;;;;1.62;1.32;;;;;;;33.85;25.10;160089.28;1653996;86;21248;-78
2021/05/03 19:51:36;;;;;;;1.77;1.50;;;;;;;33.81;25.15;160077.22;1625358;86;21467;-78
2021/05/03 20:03:08;;;;;;;1.52;1.35;;;;;;;33.94;25.01;160113.31;1668574;85;21187;-77
2021/05/03 20:05:32;;;;;;;3.20;1.65;;;;;;;33.74;25.15;160059.84;1640583;86;21321;-77
2021/05/03 20:08:12;;;;;;;2.58;1.60;;;;;;;34.55;24.65;160277.72;1664415;85;21396;-77
2021/05/03 20:11:27;;;;;;;2.27;1.62;;;;;;;33.76;25.14;160063.88;1666370;85;21357;-78
2021/05/03 20:14:07;;;;;;;3.75;1.87;;;;;;;33.66;25.24;160037.17;1665382;85;21229;-76
2021/05/03 20:16:40;;;;;;;2.10;1.60;;;;;;;33.72;25.23;160054.55;1669316;85;21228;-77
2021/05/03 20:19:12;;;;;;;2.33;1.47;;;;;;;33.72;25.26;160053.17;1650503;86;21913;-77
2021/05/03 20:21:45;;;;;;;2.12;1.50;;;;;;;33.67;25.31;160039.84;1651602;85;21224;-77
2021/05/03 20:24:18;;;;;;;4.47;1.55;;;;;;;33.70;25.31;160049.19;1653877;86;21205;-78
2021/05/03 20:26:51;;;;;;;2.85;1.65;;;;;;;33.56;25.40;160011.72;1649166;85;21320;-77
2021/05/03 20:29:24;;;;;;;2.95;2.08;;;;;;;33.50;25.52;159994.36;1647656;85;21334;-78
2021/05/03 20:31:57;;;;;;;2.45;1.40;;;;;;;33.50;25.54;159995.72;1642439;86;21235;-77
2021/05/03 20:34:35;;;;;;;3.33;1.72;;;;;;;33.44;25.57;159978.36;1647419;85;21364;-78
2021/05/03 20:42:29;;;;;;;2.05;1.42;;;;;;;33.39;25.62;159966.30;1650098;85;21724;-76
2021/05/03 20:45:01;;;;;;;2.02;1.65;;;;;;;33.33;25.64;159948.98;1657460;86;21204;-76
2021/05/03 20:47:34;;;;;;;1.92;1.42;;;;;;;33.26;25.68;159930.25;1647707;85;21229;-76
2021/05/03 20:50:09;;;;;;;3.02;2.00;;;;;;;33.26;25.66;159930.25;1649310;85;21252;-76
2021/05/03 20:52:41;;;;;;;3.08;1.45;;;;;;;33.31;25.64;159944.94;1650695;85;21177;-76
2021/05/03 20:55:13;;;;;;;2.20;1.50;;;;;;;33.26;25.60;159931.63;1657649;86;21193;-76
2021/05/03 20:57:46;;;;;;;2.50;1.70;;;;;;;33.24;25.60;159926.27;1649171;85;21182;-76
2021/05/03 21:00:21;;;;;;;2.52;1.60;;;;;;;33.27;25.53;159934.25;1628534;87;21193;-75
2021/05/03 21:02:53;;;;;;;3.62;1.55;;;;;;;33.27;25.52;159932.94;1649409;85;21193;-74
2021/05/03 21:05:28;;;;;;;2.60;1.37;;;;;;;33.25;25.49;159927.58;1656306;86;21208;-76
2021/05/03 21:08:00;;;;;;;3.25;1.27;;;;;;;33.20;25.43;159914.25;1651351;85;21253;-76
2021/05/03 21:10:35;;;;;;;2.37;1.60;;;;;;;33.26;25.35;159930.25;1655292;85;21241;-76
2021/05/03 21:13:06;;;;;;;1.70;1.22;;;;;;;33.27;25.28;159932.94;1649227;85;21189;-76
2021/05/03 21:15:39;;;;;;;2.75;1.87;;;;;;;33.19;25.30;159912.89;1649368;85;21229;-76
2021/05/03 21:18:11;;;;;;;2.35;1.45;;;;;;;33.15;25.30;159899.56;1658132;86;21231;-76
2021/05/03 21:20:43;;;;;;;2.55;1.75;;;;;;;33.09;25.31;159883.47;1663738;85;21286;-77
2021/05/03 21:23:16;;;;;;;1.65;1.30;;;;;;;33.12;25.26;159891.55;1680055;85;21185;-76
2021/05/03 21:25:48;;;;;;;2.12;1.40;;;;;;;33.15;25.21;159900.88;1681803;85;21328;-77
2021/05/03 21:28:24;;;;;;;1.70;1.15;;;;;;;33.10;25.23;159887.56;1681144;85;21210;-76
2021/05/03 21:30:54;;;;;;;2.05;1.67;;;;;;;33.06;25.23;159876.81;1680889;85;21392;-76
2021/05/03 21:33:28;;;;;;;1.70;1.20;;;;;;;33.06;25.25;159876.81;1681276;85;21209;-76
2021/05/03 21:36:00;;;;;;;1.72;1.20;;;;;;;33.11;25.26;159890.19;1681339;85;21333;-76
2021/05/03 21:38:33;;;;;;;1.95;1.15;;;;;;;33.06;25.25;159875.45;1664608;85;21215;-76
2021/05/03 21:41:06;;;;;;;2.17;1.20;;;;;;;33.03;25.27;159868.78;1655423;85;21229;-76
2021/05/03 21:43:39;;;;;;;1.45;1.12;;;;;;;33.03;25.28;159868.78;1638189;86;21755;-76
2021/05/03 21:46:12;;;;;;;1.98;1.30;;;;;;;33.02;25.29;159864.80;1665152;86;21343;-76
2021/05/03 21:48:45;;;;;;;2.17;1.20;;;;;;;32.96;25.35;159850.13;1655245;87;21298;-79
2021/05/03 21:51:18;;;;;;;1.57;1.25;;;;;;;32.94;25.37;159844.77;1638043;87;21193;-76
2021/05/03 21:53:51;;;;;;;2.37;1.20;;;;;;;32.89;25.42;159831.39;1651856;86;21835;-76
2021/05/03 21:56:23;;;;;;;1.98;1.30;;;;;;;32.87;25.46;159826.05;1663938;85;21345;-76
2021/05/03 21:58:55;;;;;;;1.90;1.22;;;;;;;32.83;25.46;159815.41;1684199;84;21220;-76
2021/05/03 22:01:27;;;;;;;1.62;1.10;;;;;;;32.88;25.45;159827.41;1676302;85;21785;-76
2021/05/03 22:03:59;;;;;;;4.10;1.57;;;;;;;32.80;25.47;159806.06;1684171;85;21213;-76
2021/05/03 22:06:36;;;;;;;1.72;1.42;;;;;;;32.76;25.51;159795.37;1676209;85;21404;-76
2021/05/03 22:09:10;;;;;;;1.65;1.15;;;;;;;32.69;25.55;159778.02;1684113;85;21708;-76
2021/05/03 22:11:42;;;;;;;2.15;1.07;;;;;;;32.72;25.53;159784.67;1647526;86;21314;-76
2021/05/03 22:14:15;;;;;;;2.20;1.52;;;;;;;32.77;25.48;159799.36;1632812;86;21198;-76
2021/05/03 22:16:57;;;;;;;2.25;1.10;;;;;;;32.76;25.49;159796.69;1662283;86;21761;-76
2021/05/03 22:19:26;;;;;;;3.55;1.20;;;;;;;32.74;25.49;159791.39;1658565;86;22512;-76
2021/05/03 22:22:05;;;;;;;2.67;1.22;;;;;;;32.69;25.53;159776.70;1656300;86;21444;-76
2021/05/03 22:24:37;;;;;;;1.67;1.10;;;;;;;32.70;25.52;159780.69;1652635;87;21737;-76
2021/05/03 22:29:48;;;;;;;2.30;1.20;;;;;;;32.63;25.58;159762.02;1621459;87;21198;-76
2021/05/03 22:32:20;;;;;;;1.20;1.10;;;;;;;32.67;25.59;159772.66;1620111;87;21370;-76
2021/05/03 22:34:53;;;;;;;3.58;1.20;;;;;;;32.61;25.58;159756.67;1646123;86;21424;-76
2021/05/03 22:37:32;;;;;;;2.65;1.20;;;;;;;32.66;25.55;159769.98;1617557;88;21208;-76
2021/05/03 22:40:10;;;;;;;2.40;1.25;;;;;;;32.63;25.54;159762.02;1643759;86;21202;-76
2021/05/03 22:43:02;;;;;;;2.35;1.20;;;;;;;32.66;25.54;159769.98;1638705;86;21348;-76
2021/05/03 23:05:32;;;;;;;2.10;1.20;;;;;;;32.26;25.74;159661.84;1676488;85;21250;-76
2021/05/03 23:10:26;;;;;;;1.27;1.10;;;;;;;32.19;25.79;159643.19;1630366;86;21202;-76
2021/05/03 23:15:35;;;;;;;1.40;1.20;;;;;;;32.21;25.76;159647.16;1659326;86;21349;-76
2021/05/03 23:17:57;;;;;;;2.08;1.10;;;;;;;32.17;25.77;159636.53;1669263;86;21286;-76
2021/05/03 23:20:30;;;;;;;1.67;1.02;;;;;;;32.10;25.79;159619.17;1668872;85;21191;-76
2021/05/03 23:23:02;;;;;;;1.72;1.20;;;;;;;32.07;25.84;159611.09;1679672;85;21859;-76
2021/05/03 23:25:35;;;;;;;2.85;1.30;;;;;;;32.01;25.87;159595.06;1650851;85;21859;-75
2021/05/03 23:28:07;;;;;;;2.17;1.20;;;;;;;31.98;25.88;159585.73;1671218;85;21338;-75
2021/05/03 23:30:39;;;;;;;1.82;1.17;;;;;;;31.97;25.91;159583.06;1657275;86;21734;-76
2021/05/03 23:33:11;;;;;;;1.72;1.42;;;;;;;31.98;25.91;159587.09;1657412;86;21338;-76
2021/05/03 23:35:43;;;;;;;3.02;1.25;;;;;;;32.01;25.89;159593.75;1665151;85;21324;-76
2021/05/03 23:38:16;;;;;;;1.70;1.25;;;;;;;31.97;25.89;159583.06;1651993;87;21860;-76
2021/05/03 23:40:48;;;;;;;1.92;1.25;;;;;;;31.90;25.93;159565.72;1642062;87;21345;-76
2021/05/03 23:43:20;;;;;;;1.90;1.70;;;;;;;31.96;25.95;159580.39;1635667;87;21214;-75
2021/05/03 23:45:53;;;;;;;1.42;1.05;;;;;;;32.04;25.87;159601.78;1637199;86;21218;-76
2021/05/03 23:48:25;;;;;;;2.50;0.95;;;;;;;32.04;25.85;159601.78;1646267;86;21193;-76
2021/05/03 23:50:57;;;;;;;1.67;1.40;;;;;;;32.00;25.86;159592.39;1668785;86;21327;-76
2021/05/03 23:53:30;;;;;;;2.72;1.30;;;;;;;31.93;25.91;159572.42;1657838;85;21292;-75
2021/05/03 23:56:02;;;;;;;2.12;1.15;;;;;;;31.92;25.93;159569.75;1653440;85;21376;-75
2021/05/03 23:58:34;;;;;;;2.83;1.40;;;;;;;31.86;25.96;159553.72;1659312;86;21349;-76
